WetterOnline ( https://www.wetteronline.ch )

Wetter aktuell Dresden

Aktuelles Wetter: Dresden/Klotzsche (232m)

6-stündlich | Neueste Meldungen
Ortszeit Temperatur Wetter
Fr, 03.12. 1:00 -1.5° C fast wolkenlos
Do, 02.12. 19:00 1.9° C bedeckt
Do, 02.12. 13:00 3.6° C wolkig
Do, 02.12. 7:00 3.4° C wolkig
Do, 02.12. 1:00 5.3° C wolkig
Mi, 01.12. 19:00 8.7° C bewölkt
Mi, 01.12. 13:00 6.9° C bedeckt
Mi, 01.12. 7:00 3.9° C leichter Regen
Ortszeit Temperatur Wetter
Fr, 03.12. 2:20 -1° C leicht bewölkt
Fr, 03.12. 2:00 -1.3° C leicht bewölkt
Fr, 03.12. 1:50 -1.3° C leicht bewölkt
Fr, 03.12. 1:40 -1.4° C wolkenlos
Fr, 03.12. 1:30 -1.4° C leicht bewölkt
Fr, 03.12. 1:20 -1.4° C leicht bewölkt
Fr, 03.12. 1:00 -1.5° C fast wolkenlos
Fr, 03.12. 0:30 -1.3° C wolkenlos
Fr, 03.12. 0:00 -0.7° C leicht bewölkt
Do, 02.12. 23:30 -0.8° C wolkenlos
Do, 02.12. 23:00 -0.7° C leicht bewölkt
Ortszeit Relative Feuchte Sichtweite
Fr, 03.12. 1:00 85% 35 km
Do, 02.12. 19:00 66% 50 km
Do, 02.12. 13:00 64% 60 km
Do, 02.12. 7:00 74% 50 km
Do, 02.12. 1:00 74% 55 km
Mi, 01.12. 19:00 71% 50 km
Mi, 01.12. 13:00 75% 50 km
Mi, 01.12. 7:00 95% 15 km
Ortszeit Relative Feuchte Sichtweite
Fr, 03.12. 2:20 86% >10 km
Fr, 03.12. 2:00 86% 30 km
Fr, 03.12. 1:50 86% -
Fr, 03.12. 1:40 86% -
Fr, 03.12. 1:30 84% 40 km
Fr, 03.12. 1:20 84% -
Fr, 03.12. 1:00 85% 35 km
Fr, 03.12. 0:30 86% 35 km
Fr, 03.12. 0:00 86% 40 km
Do, 02.12. 23:30 84% 45 km
Do, 02.12. 23:00 83% 45 km
Ortszeit Niederschlagsmenge Niederschlagsart
Fr, 03.12. 1:00 0.0 l/m2 in 6 Std. -
Do, 02.12. 19:00 0.0 l/m2 in 12 Std. -
Do, 02.12. 13:00 0.0 l/m2 in 6 Std. -
Do, 02.12. 7:00 0.5 l/m2 in 12 Std. -
Do, 02.12. 1:00 0.5 l/m2 in 6 Std. Regenschauer
Mi, 01.12. 19:00 5 l/m2 in 12 Std. Regen
Mi, 01.12. 13:00 5 l/m2 in 6 Std. Regen
Mi, 01.12. 7:00 1 l/m2 in 12 Std. Regen
Ortszeit Niederschlagsmenge Niederschlagsart
Fr, 03.12. 2:20 keine Meldung -
Fr, 03.12. 2:00 0.0 l/m2 in 1 Std. -
Fr, 03.12. 1:50 keine Meldung -
Fr, 03.12. 1:40 keine Meldung -
Fr, 03.12. 1:30 0.0 l/m2 in 1 Std. -
Fr, 03.12. 1:20 keine Meldung -
Fr, 03.12. 1:00 0.0 l/m2 in 1 Std. -
Fr, 03.12. 0:30 0.0 l/m2 in 1 Std. -
Fr, 03.12. 0:00 0.0 l/m2 in 1 Std. -
Do, 02.12. 23:30 0.0 l/m2 in 1 Std. -
Do, 02.12. 23:00 0.0 l/m2 in 1 Std. -
Ortszeit Stärke Spitze Richtung
km/h Bft. km/h Grad Sektor
Fr, 03.12. 1:00 11 2 25 270° W
Do, 02.12. 19:00 11 2 30 300° NW
Do, 02.12. 13:00 14 3 43 300° NW
Do, 02.12. 7:00 25 4 65 250° W
Do, 02.12. 1:00 35 5 69 260° W
Mi, 01.12. 19:00 25 4 50 220° SW
Mi, 01.12. 13:00 28 4 54 220° SW
Mi, 01.12. 7:00 19 3 28 180° S
Ortszeit Stärke Spitze Richtung
km/h Bft. km/h Grad Sektor
Fr, 03.12. 2:20 9 2 - 270° W
Fr, 03.12. 2:00 13 3 20 280° W
Fr, 03.12. 1:50 13 3 - 280° W
Fr, 03.12. 1:40 14 3 - 270° W
Fr, 03.12. 1:30 9 2 19 270° W
Fr, 03.12. 1:20 9 2 - 270° W
Fr, 03.12. 1:00 11 2 22 270° W
Fr, 03.12. 0:30 11 2 22 280° W
Fr, 03.12. 0:00 14 3 22 280° W
Do, 02.12. 23:30 9 2 17 290° W
Do, 02.12. 23:00 13 3 24 290° W
Ortszeit Untergrenze Bedeckung Gattung
total tief tief mittel hoch
Fr, 03.12. 1:00 600 m 1/8 1/8 Cu - -
Do, 02.12. 19:00 1290 m 8/8 8/8 Sc - -
Do, 02.12. 13:00 1020 m 6/8 6/8 Cu - -
Do, 02.12. 7:00 660 m 5/8 5/8 Cu - -
Do, 02.12. 1:00 1020 m 5/8 5/8 Sc - -
Mi, 01.12. 19:00 870 m 6/8 6/8 Sc - -
Mi, 01.12. 13:00 630 m 8/8 7/8 Sc - -
Mi, 01.12. 7:00 480 m 8/8 6/8 Sc Ns -
Ortszeit Bedeckungsgrad in Achtel und Wolkenuntergrenze
Fr, 03.12. 2:20 3-4(360m)
Fr, 03.12. 2:00 3(420m)
Fr, 03.12. 1:50 3(420m)
Fr, 03.12. 1:40 keine Wolken
Fr, 03.12. 1:30 2(480m)
Fr, 03.12. 1:20 2(480m)
Fr, 03.12. 1:00 1(600m)
Fr, 03.12. 0:30 keine Wolken
Fr, 03.12. 0:00 2(420m)
Do, 02.12. 23:30 1(420m)
Do, 02.12. 23:00 3(690m)
Ortszeit Luftdruck NN (hPa) Tendenz (hPa in 3 Std.)
Fr, 03.12. 1:00 1008 + 1,8
Do, 02.12. 19:00 1003 + 2,7
Do, 02.12. 13:00 999 + 0,8
Do, 02.12. 7:00 996 + 1,8
Do, 02.12. 1:00 992 + 1,6
Mi, 01.12. 19:00 990 - 1,9
Mi, 01.12. 13:00 995 - 2,9
Mi, 01.12. 7:00 1001 - 3,3
Ortszeit Luftdruck NN (hPa) Tendenz (hPa in 3 Std.)
Fr, 03.12. 2:20 1008 keine Meldung
Fr, 03.12. 2:00 1009 + 2,5
Fr, 03.12. 1:50 1009 keine Meldung
Fr, 03.12. 1:40 1009 keine Meldung
Fr, 03.12. 1:30 1009 + 2,1
Fr, 03.12. 1:20 1009 keine Meldung
Fr, 03.12. 1:00 1008 + 1,8
Fr, 03.12. 0:30 1008 + 2,1
Fr, 03.12. 0:00 1007 + 2,2
Do, 02.12. 23:30 1007 + 2,4
Do, 02.12. 23:00 1007 + 2,2
Ortszeit Schneehöhe (cm)
Fr, 03.12. 1:00 0
Do, 02.12. 19:00 0
Do, 02.12. 13:00 0
Do, 02.12. 7:00 0
Do, 02.12. 1:00 0
Mi, 01.12. 19:00 0
Mi, 01.12. 13:00 0
Mi, 01.12. 7:00 0
Ortszeit Schneehöhe (cm)
Fr, 03.12. 2:20 -
Fr, 03.12. 2:00 0
Fr, 03.12. 1:50 0
Fr, 03.12. 1:40 0
Fr, 03.12. 1:30 0
Fr, 03.12. 1:20 0
Fr, 03.12. 1:00 0
Fr, 03.12. 0:30 0
Fr, 03.12. 0:00 0
Do, 02.12. 23:30 0
Do, 02.12. 23:00 0
Link zu dieser Seite / Seite empfehlen

Das Wetter in ...